sensor_id;sensor_type;location;lat;lon;timestamp;pressure;altitude;pressure_sealevel;temperature;humidity
71361;BME280;59166;48.908;1.870;2022-10-16T00:04:44;99924.31;;;14.61;100.00
71361;BME280;59166;48.908;1.870;2022-10-16T00:09:47;99936.00;;;14.62;100.00
71361;BME280;59166;48.908;1.870;2022-10-16T00:14:48;99915.84;;;14.63;100.00
71361;BME280;59166;48.908;1.870;2022-10-16T00:19:49;99919.38;;;14.63;100.00
71361;BME280;59166;48.908;1.870;2022-10-16T00:24:51;99943.25;;;14.66;100.00
71361;BME280;59166;48.908;1.870;2022-10-16T00:29:52;99938.63;;;14.67;100.00
71361;BME280;59166;48.908;1.870;2022-10-16T00:34:53;99949.22;;;14.68;100.00
71361;BME280;59166;48.908;1.870;2022-10-16T00:39:55;99949.31;;;14.77;100.00
71361;BME280;59166;48.908;1.870;2022-10-16T00:44:57;99960.31;;;14.72;100.00
71361;BME280;59166;48.908;1.870;2022-10-16T00:50:02;99957.28;;;14.73;100.00
71361;BME280;59166;48.908;1.870;2022-10-16T00:55:08;99951.94;;;14.68;100.00
71361;BME280;59166;48.908;1.870;2022-10-16T01:00:12;99948.91;;;14.70;100.00
71361;BME280;59166;48.908;1.870;2022-10-16T01:05:13;99969.56;;;14.71;100.00
71361;BME280;59166;48.908;1.870;2022-10-16T01:10:21;99964.22;;;14.66;100.00
71361;BME280;59166;48.908;1.870;2022-10-16T01:15:30;99963.63;;;14.69;100.00
71361;BME280;59166;48.908;1.870;2022-10-16T01:20:34;99953.63;;;14.64;100.00
71361;BME280;59166;48.908;1.870;2022-10-16T01:25:50;99958.19;;;14.69;100.00
71361;BME280;59166;48.908;1.870;2022-10-16T01:30:58;99969.66;;;14.66;100.00
71361;BME280;59166;48.908;1.870;2022-10-16T01:36:04;99967.22;;;14.64;100.00
71361;BME280;59166;48.908;1.870;2022-10-16T01:41:08;99958.34;;;14.59;100.00
71361;BME280;59166;48.908;1.870;2022-10-16T01:46:13;99967.59;;;14.58;100.00
71361;BME280;59166;48.908;1.870;2022-10-16T01:51:17;99965.69;;;14.58;100.00
71361;BME280;59166;48.908;1.870;2022-10-16T01:56:20;99966.53;;;14.54;100.00
71361;BME280;59166;48.908;1.870;2022-10-16T02:01:26;99967.13;;;14.51;100.00
71361;BME280;59166;48.908;1.870;2022-10-16T02:06:28;99968.53;;;14.48;100.00
71361;BME280;59166;48.908;1.870;2022-10-16T02:11:29;99976.97;;;14.47;100.00
71361;BME280;59166;48.908;1.870;2022-10-16T02:16:36;99982.41;;;14.47;100.00
71361;BME280;59166;48.908;1.870;2022-10-16T02:21:42;99976.47;;;14.45;100.00
71361;BME280;59166;48.908;1.870;2022-10-16T02:26:48;99979.41;;;14.48;100.00
71361;BME280;59166;48.908;1.870;2022-10-16T02:31:57;99988.66;;;14.47;100.00
71361;BME280;59166;48.908;1.870;2022-10-16T02:37:01;100008.50;;;14.48;100.00
71361;BME280;59166;48.908;1.870;2022-10-16T02:42:02;99999.84;;;14.46;100.00
71361;BME280;59166;48.908;1.870;2022-10-16T02:47:04;99996.81;;;14.47;100.00
71361;BME280;59166;48.908;1.870;2022-10-16T02:52:05;99998.22;;;14.45;100.00
71361;BME280;59166;48.908;1.870;2022-10-16T02:57:06;100000.13;;;14.44;100.00
71361;BME280;59166;48.908;1.870;2022-10-16T03:02:09;99987.25;;;14.50;100.00
71361;BME280;59166;48.908;1.870;2022-10-16T03:07:10;99983.53;;;14.46;100.00
71361;BME280;59166;48.908;1.870;2022-10-16T03:12:11;99990.94;;;14.40;100.00
71361;BME280;59166;48.908;1.870;2022-10-16T03:17:13;99993.66;;;14.40;100.00
71361;BME280;59166;48.908;1.870;2022-10-16T03:22:14;100009.13;;;14.39;100.00
71361;BME280;59166;48.908;1.870;2022-10-16T03:27:15;99989.03;;;14.40;100.00
71361;BME280;59166;48.908;1.870;2022-10-16T03:32:18;100005.91;;;14.37;100.00
71361;BME280;59166;48.908;1.870;2022-10-16T03:37:19;99985.00;;;14.38;100.00
71361;BME280;59166;48.908;1.870;2022-10-16T03:42:19;99986.59;;;14.39;100.00
71361;BME280;59166;48.908;1.870;2022-10-16T03:47:22;100006.72;;;14.38;100.00
71361;BME280;59166;48.908;1.870;2022-10-16T03:52:23;100012.38;;;14.41;100.00
71361;BME280;59166;48.908;1.870;2022-10-16T03:57:24;100018.41;;;14.38;100.00
71361;BME280;59166;48.908;1.870;2022-10-16T04:02:26;100032.50;;;14.40;100.00
71361;BME280;59166;48.908;1.870;2022-10-16T04:07:27;100016.19;;;14.40;100.00
71361;BME280;59166;48.908;1.870;2022-10-16T04:12:28;100025.75;;;14.38;100.00
71361;BME280;59166;48.908;1.870;2022-10-16T04:17:30;100033.59;;;14.39;100.00
71361;BME280;59166;48.908;1.870;2022-10-16T04:22:31;100038.75;;;14.41;100.00
71361;BME280;59166;48.908;1.870;2022-10-16T04:27:32;100050.66;;;14.45;100.00
71361;BME280;59166;48.908;1.870;2022-10-16T04:32:34;100049.91;;;14.39;100.00
71361;BME280;59166;48.908;1.870;2022-10-16T04:37:35;100054.75;;;14.42;100.00
71361;BME280;59166;48.908;1.870;2022-10-16T04:42:36;100068.56;;;14.46;100.00
71361;BME280;59166;48.908;1.870;2022-10-16T04:47:39;100065.63;;;14.42;100.00
71361;BME280;59166;48.908;1.870;2022-10-16T04:52:40;100065.72;;;14.37;100.00
71361;BME280;59166;48.908;1.870;2022-10-16T04:57:41;100075.19;;;14.40;100.00
71361;BME280;59166;48.908;1.870;2022-10-16T05:02:43;100083.69;;;14.33;100.00
71361;BME280;59166;48.908;1.870;2022-10-16T05:07:44;100098.13;;;14.29;100.00
71361;BME280;59166;48.908;1.870;2022-10-16T05:12:46;100109.59;;;14.26;100.00
71361;BME280;59166;48.908;1.870;2022-10-16T05:17:52;100117.22;;;14.24;100.00
71361;BME280;59166;48.908;1.870;2022-10-16T05:22:53;100109.94;;;14.19;100.00
71361;BME280;59166;48.908;1.870;2022-10-16T05:27:54;100104.25;;;14.16;100.00
71361;BME280;59166;48.908;1.870;2022-10-16T05:32:56;100106.41;;;14.19;100.00
71361;BME280;59166;48.908;1.870;2022-10-16T05:37:57;100109.41;;;14.17;100.00
71361;BME280;59166;48.908;1.870;2022-10-16T05:42:58;100113.53;;;14.15;100.00
71361;BME280;59166;48.908;1.870;2022-10-16T05:48:01;100105.66;;;14.13;100.00
71361;BME280;59166;48.908;1.870;2022-10-16T05:53:01;100112.41;;;14.16;100.00
71361;BME280;59166;48.908;1.870;2022-10-16T05:58:02;100119.25;;;14.13;100.00
71361;BME280;59166;48.908;1.870;2022-10-16T06:03:04;100111.38;;;14.12;100.00
71361;BME280;59166;48.908;1.870;2022-10-16T06:08:05;100116.28;;;14.10;100.00
71361;BME280;59166;48.908;1.870;2022-10-16T06:13:06;100107.38;;;14.04;100.00
71361;BME280;59166;48.908;1.870;2022-10-16T06:18:08;100109.06;;;14.00;100.00
71361;BME280;59166;48.908;1.870;2022-10-16T06:23:09;100125.69;;;13.94;100.00
71361;BME280;59166;48.908;1.870;2022-10-16T06:28:10;100127.13;;;13.86;100.00
71361;BME280;59166;48.908;1.870;2022-10-16T06:33:12;100109.06;;;13.71;100.00
71361;BME280;59166;48.908;1.870;2022-10-16T06:38:13;100128.06;;;13.71;100.00
71361;BME280;59166;48.908;1.870;2022-10-16T06:43:14;100142.41;;;13.77;100.00
71361;BME280;59166;48.908;1.870;2022-10-16T06:48:16;100141.78;;;13.85;100.00
71361;BME280;59166;48.908;1.870;2022-10-16T06:53:17;100155.25;;;13.95;100.00
71361;BME280;59166;48.908;1.870;2022-10-16T06:58:18;100166.59;;;14.02;100.00
71361;BME280;59166;48.908;1.870;2022-10-16T07:03:20;100173.09;;;14.06;100.00
71361;BME280;59166;48.908;1.870;2022-10-16T07:08:21;100177.94;;;14.09;100.00
71361;BME280;59166;48.908;1.870;2022-10-16T07:13:22;100185.53;;;14.12;100.00
71361;BME280;59166;48.908;1.870;2022-10-16T07:18:25;100180.06;;;14.17;100.00
71361;BME280;59166;48.908;1.870;2022-10-16T07:23:25;100181.69;;;14.18;100.00
71361;BME280;59166;48.908;1.870;2022-10-16T07:28:26;100182.94;;;14.26;100.00
71361;BME280;59166;48.908;1.870;2022-10-16T07:33:29;100173.47;;;14.23;100.00
71361;BME280;59166;48.908;1.870;2022-10-16T07:38:33;100176.47;;;14.22;100.00
71361;BME280;59166;48.908;1.870;2022-10-16T07:43:35;100179.31;;;14.35;100.00
71361;BME280;59166;48.908;1.870;2022-10-16T07:48:37;100189.69;;;14.57;100.00
71361;BME280;59166;48.908;1.870;2022-10-16T07:53:38;100225.25;;;14.61;100.00
71361;BME280;59166;48.908;1.870;2022-10-16T07:58:39;100219.69;;;14.71;100.00
71361;BME280;59166;48.908;1.870;2022-10-16T08:03:56;100201.53;;;14.66;100.00
71361;BME280;59166;48.908;1.870;2022-10-16T08:08:57;100196.84;;;14.72;99.85
71361;BME280;59166;48.908;1.870;2022-10-16T08:14:02;100192.66;;;14.79;100.00
71361;BME280;59166;48.908;1.870;2022-10-16T08:19:05;100212.25;;;14.81;99.84
71361;BME280;59166;48.908;1.870;2022-10-16T08:24:05;100226.94;;;14.80;99.74
71361;BME280;59166;48.908;1.870;2022-10-16T08:29:07;100236.63;;;14.86;100.00
71361;BME280;59166;48.908;1.870;2022-10-16T08:34:09;100249.06;;;14.98;99.99
71361;BME280;59166;48.908;1.870;2022-10-16T08:39:10;100250.34;;;15.05;99.50
71361;BME280;59166;48.908;1.870;2022-10-16T08:44:28;100236.53;;;15.20;99.09
71361;BME280;59166;48.908;1.870;2022-10-16T08:49:32;100247.34;;;15.81;96.62
71361;BME280;59166;48.908;1.870;2022-10-16T08:54:36;100230.63;;;15.88;96.08
71361;BME280;59166;48.908;1.870;2022-10-16T08:59:38;100243.31;;;15.79;95.07
71361;BME280;59166;48.908;1.870;2022-10-16T09:04:53;100251.66;;;16.01;94.19
71361;BME280;59166;48.908;1.870;2022-10-16T09:10:11;100254.50;;;16.28;92.57
71361;BME280;59166;48.908;1.870;2022-10-16T09:15:22;100259.38;;;16.45;93.44
71361;BME280;59166;48.908;1.870;2022-10-16T09:20:42;100257.47;;;16.45;89.99
71361;BME280;59166;48.908;1.870;2022-10-16T09:25:47;100249.81;;;16.48;88.80
71361;BME280;59166;48.908;1.870;2022-10-16T09:30:49;100240.50;;;16.49;88.37
71361;BME280;59166;48.908;1.870;2022-10-16T09:35:53;100239.72;;;16.48;85.01
71361;BME280;59166;48.908;1.870;2022-10-16T09:40:55;100248.00;;;16.57;85.15
71361;BME280;59166;48.908;1.870;2022-10-16T09:45:58;100247.81;;;16.67;87.14
71361;BME280;59166;48.908;1.870;2022-10-16T09:51:03;100249.66;;;16.99;86.09
71361;BME280;59166;48.908;1.870;2022-10-16T09:56:04;100251.97;;;17.32;83.60
71361;BME280;59166;48.908;1.870;2022-10-16T10:01:05;100254.13;;;17.22;82.63
71361;BME280;59166;48.908;1.870;2022-10-16T10:06:17;100246.22;;;17.20;82.91
71361;BME280;59166;48.908;1.870;2022-10-16T10:11:18;100252.28;;;17.31;82.71
71361;BME280;59166;48.908;1.870;2022-10-16T10:16:36;100239.66;;;17.21;81.76
71361;BME280;59166;48.908;1.870;2022-10-16T10:21:39;100238.63;;;17.17;85.39
71361;BME280;59166;48.908;1.870;2022-10-16T10:26:48;100231.31;;;17.13;82.38
71361;BME280;59166;48.908;1.870;2022-10-16T10:32:12;100217.91;;;17.03;82.56
71361;BME280;59166;48.908;1.870;2022-10-16T10:42:50;100199.19;;;17.23;81.95
71361;BME280;59166;48.908;1.870;2022-10-16T10:48:12;100206.34;;;17.33;78.28
71361;BME280;59166;48.908;1.870;2022-10-16T10:53:27;100197.44;;;17.41;77.54
71361;BME280;59166;48.908;1.870;2022-10-16T10:59:05;100212.34;;;17.57;79.23
71361;BME280;59166;48.908;1.870;2022-10-16T11:04:43;100211.00;;;17.68;77.71
71361;BME280;59166;48.908;1.870;2022-10-16T11:09:53;100210.81;;;17.65;77.19
71361;BME280;59166;48.908;1.870;2022-10-16T11:15:02;100223.84;;;17.68;79.40
71361;BME280;59166;48.908;1.870;2022-10-16T11:20:13;100217.47;;;17.72;79.87
71361;BME280;59166;48.908;1.870;2022-10-16T11:25:19;100198.28;;;17.86;79.37
71361;BME280;59166;48.908;1.870;2022-10-16T11:30:22;100200.38;;;17.89;79.05
71361;BME280;59166;48.908;1.870;2022-10-16T11:35:27;100184.09;;;18.06;76.13
71361;BME280;59166;48.908;1.870;2022-10-16T11:40:38;100169.69;;;18.45;76.81
71361;BME280;59166;48.908;1.870;2022-10-16T11:46:02;100167.81;;;18.63;75.02
71361;BME280;59166;48.908;1.870;2022-10-16T11:51:11;100171.44;;;18.89;74.47
71361;BME280;59166;48.908;1.870;2022-10-16T11:56:32;100169.59;;;19.15;73.61
71361;BME280;59166;48.908;1.870;2022-10-16T12:01:41;100181.53;;;19.36;74.87
71361;BME280;59166;48.908;1.870;2022-10-16T12:06:46;100182.50;;;19.23;76.43
71361;BME280;59166;48.908;1.870;2022-10-16T12:11:50;100174.13;;;19.54;75.79
71361;BME280;59166;48.908;1.870;2022-10-16T12:16:52;100180.41;;;19.46;75.82
71361;BME280;59166;48.908;1.870;2022-10-16T12:21:56;100166.72;;;19.37;77.62
71361;BME280;59166;48.908;1.870;2022-10-16T12:26:59;100166.22;;;19.18;76.20
71361;BME280;59166;48.908;1.870;2022-10-16T12:32:02;100147.34;;;19.08;79.10
71361;BME280;59166;48.908;1.870;2022-10-16T12:37:11;100143.94;;;19.03;78.29
71361;BME280;59166;48.908;1.870;2022-10-16T12:42:35;100147.97;;;19.05;80.32
71361;BME280;59166;48.908;1.870;2022-10-16T12:47:38;100146.53;;;19.08;79.14
71361;BME280;59166;48.908;1.870;2022-10-16T12:52:48;100144.97;;;19.15;80.23
71361;BME280;59166;48.908;1.870;2022-10-16T12:58:03;100148.50;;;19.33;79.60
71361;BME280;59166;48.908;1.870;2022-10-16T13:03:38;100148.84;;;19.48;79.10
71361;BME280;59166;48.908;1.870;2022-10-16T13:14:22;100127.00;;;18.92;81.28
71361;BME280;59166;48.908;1.870;2022-10-16T13:19:32;100117.09;;;19.30;82.69
71361;BME280;59166;48.908;1.870;2022-10-16T13:24:51;100119.97;;;19.51;81.19
71361;BME280;59166;48.908;1.870;2022-10-16T13:30:11;100124.19;;;19.48;80.76
71361;BME280;59166;48.908;1.870;2022-10-16T13:35:23;100130.78;;;19.47;81.73
71361;BME280;59166;48.908;1.870;2022-10-16T13:40:24;100139.94;;;19.26;81.24
71361;BME280;59166;48.908;1.870;2022-10-16T13:45:26;100126.59;;;19.24;81.81
71361;BME280;59166;48.908;1.870;2022-10-16T13:50:27;100129.00;;;19.26;81.20
71361;BME280;59166;48.908;1.870;2022-10-16T13:55:28;100125.00;;;19.32;82.82
71361;BME280;59166;48.908;1.870;2022-10-16T14:00:30;100130.59;;;19.53;81.80
71361;BME280;59166;48.908;1.870;2022-10-16T14:05:32;100130.47;;;19.49;82.81
71361;BME280;59166;48.908;1.870;2022-10-16T14:10:33;100132.72;;;19.47;82.81
71361;BME280;59166;48.908;1.870;2022-10-16T14:15:36;100118.03;;;19.52;83.27
71361;BME280;59166;48.908;1.870;2022-10-16T14:20:37;100119.03;;;19.38;83.51
71361;BME280;59166;48.908;1.870;2022-10-16T14:25:39;100119.19;;;19.42;82.47
71361;BME280;59166;48.908;1.870;2022-10-16T14:30:49;100119.50;;;19.49;82.90
71361;BME280;59166;48.908;1.870;2022-10-16T14:36:02;100123.19;;;19.53;81.87
71361;BME280;59166;48.908;1.870;2022-10-16T14:41:05;100123.69;;;19.55;84.11
71361;BME280;59166;48.908;1.870;2022-10-16T14:46:14;100123.34;;;19.57;83.50
71361;BME280;59166;48.908;1.870;2022-10-16T14:51:16;100129.31;;;19.50;84.60
71361;BME280;59166;48.908;1.870;2022-10-16T14:56:18;100127.06;;;19.43;84.18
71361;BME280;59166;48.908;1.870;2022-10-16T15:01:21;100113.72;;;19.42;84.23
71361;BME280;59166;48.908;1.870;2022-10-16T15:06:22;100113.22;;;19.40;86.07
71361;BME280;59166;48.908;1.870;2022-10-16T15:11:23;100117.09;;;19.39;86.33
71361;BME280;59166;48.908;1.870;2022-10-16T15:16:25;100110.63;;;19.43;86.61
71361;BME280;59166;48.908;1.870;2022-10-16T15:21:27;100104.34;;;19.43;85.79
71361;BME280;59166;48.908;1.870;2022-10-16T15:26:29;100102.25;;;19.40;86.33
71361;BME280;59166;48.908;1.870;2022-10-16T15:31:32;100101.94;;;19.41;86.88
71361;BME280;59166;48.908;1.870;2022-10-16T15:36:34;100100.16;;;19.37;86.31
71361;BME280;59166;48.908;1.870;2022-10-16T15:41:35;100103.72;;;19.37;86.90
71361;BME280;59166;48.908;1.870;2022-10-16T15:46:37;100104.69;;;19.41;87.76
71361;BME280;59166;48.908;1.870;2022-10-16T15:51:39;100102.91;;;19.45;87.75
71361;BME280;59166;48.908;1.870;2022-10-16T15:56:40;100101.28;;;19.44;87.91
71361;BME280;59166;48.908;1.870;2022-10-16T16:01:43;100104.69;;;19.41;87.94
71361;BME280;59166;48.908;1.870;2022-10-16T16:06:44;100092.44;;;19.39;88.61
71361;BME280;59166;48.908;1.870;2022-10-16T16:11:50;100093.06;;;19.36;88.94
71361;BME280;59166;48.908;1.870;2022-10-16T16:16:56;100096.31;;;19.38;89.27
71361;BME280;59166;48.908;1.870;2022-10-16T16:22:01;100096.44;;;19.33;89.47
71361;BME280;59166;48.908;1.870;2022-10-16T16:27:02;100098.22;;;19.20;90.23
71361;BME280;59166;48.908;1.870;2022-10-16T16:32:08;100089.84;;;19.17;89.99
71361;BME280;59166;48.908;1.870;2022-10-16T16:37:09;100084.34;;;18.99;90.59
71361;BME280;59166;48.908;1.870;2022-10-16T16:42:10;100090.13;;;18.89;91.16
71361;BME280;59166;48.908;1.870;2022-10-16T16:47:12;100087.41;;;18.81;91.34
71361;BME280;59166;48.908;1.870;2022-10-16T16:52:13;100087.53;;;18.76;91.58
71361;BME280;59166;48.908;1.870;2022-10-16T16:57:14;100099.13;;;18.73;92.14
71361;BME280;59166;48.908;1.870;2022-10-16T17:02:16;100100.75;;;18.74;92.02
71361;BME280;59166;48.908;1.870;2022-10-16T17:07:17;100097.16;;;18.65;92.88
71361;BME280;59166;48.908;1.870;2022-10-16T17:12:18;100097.97;;;18.57;93.37
71361;BME280;59166;48.908;1.870;2022-10-16T17:17:20;100098.72;;;18.48;94.38
71361;BME280;59166;48.908;1.870;2022-10-16T17:22:21;100103.72;;;18.46;94.84
71361;BME280;59166;48.908;1.870;2022-10-16T17:27:22;100101.13;;;18.41;95.38
71361;BME280;59166;48.908;1.870;2022-10-16T17:32:24;100104.84;;;18.37;95.65
71361;BME280;59166;48.908;1.870;2022-10-16T17:37:25;100113.16;;;18.32;96.15
71361;BME280;59166;48.908;1.870;2022-10-16T17:42:26;100113.66;;;18.34;96.38
71361;BME280;59166;48.908;1.870;2022-10-16T17:47:28;100117.19;;;18.34;96.20
71361;BME280;59166;48.908;1.870;2022-10-16T17:52:29;100119.91;;;18.34;96.57
71361;BME280;59166;48.908;1.870;2022-10-16T17:57:30;100124.72;;;18.29;96.79
71361;BME280;59166;48.908;1.870;2022-10-16T18:02:32;100124.56;;;18.25;96.79
71361;BME280;59166;48.908;1.870;2022-10-16T18:07:33;100122.16;;;18.02;97.73
71361;BME280;59166;48.908;1.870;2022-10-16T18:12:34;100121.63;;;17.91;99.31
71361;BME280;59166;48.908;1.870;2022-10-16T18:17:37;100113.94;;;17.93;100.00
71361;BME280;59166;48.908;1.870;2022-10-16T18:22:38;100116.03;;;17.96;100.00
71361;BME280;59166;48.908;1.870;2022-10-16T18:27:38;100115.41;;;17.99;100.00
71361;BME280;59166;48.908;1.870;2022-10-16T18:32:41;100116.13;;;18.13;100.00
71361;BME280;59166;48.908;1.870;2022-10-16T18:37:42;100114.97;;;18.14;100.00
71361;BME280;59166;48.908;1.870;2022-10-16T18:42:43;100121.06;;;18.11;100.00
71361;BME280;59166;48.908;1.870;2022-10-16T18:47:45;100110.28;;;18.06;100.00
71361;BME280;59166;48.908;1.870;2022-10-16T18:52:51;100098.66;;;18.01;100.00
71361;BME280;59166;48.908;1.870;2022-10-16T18:57:52;100091.25;;;17.92;100.00
71361;BME280;59166;48.908;1.870;2022-10-16T19:02:55;100092.69;;;17.90;100.00
71361;BME280;59166;48.908;1.870;2022-10-16T19:07:58;100098.19;;;17.98;100.00
71361;BME280;59166;48.908;1.870;2022-10-16T19:12:59;100096.75;;;18.01;100.00
71361;BME280;59166;48.908;1.870;2022-10-16T19:18:02;100104.66;;;18.03;100.00
71361;BME280;59166;48.908;1.870;2022-10-16T19:23:03;100114.94;;;18.06;100.00
71361;BME280;59166;48.908;1.870;2022-10-16T19:28:05;100113.16;;;18.01;100.00
71361;BME280;59166;48.908;1.870;2022-10-16T19:33:07;100114.13;;;17.96;100.00
71361;BME280;59166;48.908;1.870;2022-10-16T19:38:08;100111.81;;;17.90;100.00
71361;BME280;59166;48.908;1.870;2022-10-16T19:43:09;100120.47;;;17.83;100.00
71361;BME280;59166;48.908;1.870;2022-10-16T19:48:11;100134.06;;;17.75;100.00
71361;BME280;59166;48.908;1.870;2022-10-16T19:53:12;100130.34;;;17.71;100.00
71361;BME280;59166;48.908;1.870;2022-10-16T19:58:12;100130.34;;;17.71;100.00
71361;BME280;59166;48.908;1.870;2022-10-16T20:03:15;100128.22;;;17.68;100.00
71361;BME280;59166;48.908;1.870;2022-10-16T20:08:16;100126.00;;;17.70;100.00
71361;BME280;59166;48.908;1.870;2022-10-16T20:13:18;100139.03;;;17.73;100.00
71361;BME280;59166;48.908;1.870;2022-10-16T20:18:20;100132.59;;;17.69;100.00
71361;BME280;59166;48.908;1.870;2022-10-16T20:23:22;100127.94;;;17.69;100.00
71361;BME280;59166;48.908;1.870;2022-10-16T20:28:23;100132.25;;;17.70;100.00
71361;BME280;59166;48.908;1.870;2022-10-16T20:33:25;100140.44;;;17.70;100.00
71361;BME280;59166;48.908;1.870;2022-10-16T20:38:26;100143.31;;;17.65;100.00
71361;BME280;59166;48.908;1.870;2022-10-16T20:43:27;100147.34;;;17.68;100.00
71361;BME280;59166;48.908;1.870;2022-10-16T20:48:29;100144.63;;;17.68;100.00
71361;BME280;59166;48.908;1.870;2022-10-16T20:53:30;100143.81;;;17.67;100.00
71361;BME280;59166;48.908;1.870;2022-10-16T20:58:31;100140.13;;;17.63;100.00
71361;BME280;59166;48.908;1.870;2022-10-16T21:03:34;100148.47;;;17.67;100.00
71361;BME280;59166;48.908;1.870;2022-10-16T21:08:35;100152.34;;;17.66;100.00
71361;BME280;59166;48.908;1.870;2022-10-16T21:13:37;100155.06;;;17.66;100.00
71361;BME280;59166;48.908;1.870;2022-10-16T21:18:39;100151.19;;;17.67;100.00
71361;BME280;59166;48.908;1.870;2022-10-16T21:23:40;100151.34;;;17.62;100.00
71361;BME280;59166;48.908;1.870;2022-10-16T21:28:41;100137.69;;;17.62;100.00
71361;BME280;59166;48.908;1.870;2022-10-16T21:33:44;100147.31;;;17.59;100.00
71361;BME280;59166;48.908;1.870;2022-10-16T21:38:45;100151.97;;;17.59;100.00
71361;BME280;59166;48.908;1.870;2022-10-16T21:43:46;100153.41;;;17.56;100.00
71361;BME280;59166;48.908;1.870;2022-10-16T21:48:51;100157.03;;;17.52;100.00
71361;BME280;59166;48.908;1.870;2022-10-16T21:53:53;100155.56;;;17.45;100.00
71361;BME280;59166;48.908;1.870;2022-10-16T21:58:54;100160.41;;;17.49;100.00
71361;BME280;59166;48.908;1.870;2022-10-16T22:03:57;100164.84;;;17.44;100.00
71361;BME280;59166;48.908;1.870;2022-10-16T22:08:59;100171.44;;;17.43;100.00
71361;BME280;59166;48.908;1.870;2022-10-16T22:14:00;100174.97;;;17.44;100.00
71361;BME280;59166;48.908;1.870;2022-10-16T22:19:03;100180.44;;;17.44;100.00
71361;BME280;59166;48.908;1.870;2022-10-16T22:24:05;100180.13;;;17.45;100.00
71361;BME280;59166;48.908;1.870;2022-10-16T22:29:07;100179.63;;;17.43;100.00
71361;BME280;59166;48.908;1.870;2022-10-16T22:34:11;100178.94;;;17.38;100.00
71361;BME280;59166;48.908;1.870;2022-10-16T22:39:12;100185.50;;;17.37;100.00
71361;BME280;59166;48.908;1.870;2022-10-16T22:44:13;100196.63;;;17.40;100.00
71361;BME280;59166;48.908;1.870;2022-10-16T22:49:16;100191.88;;;17.46;100.00
71361;BME280;59166;48.908;1.870;2022-10-16T22:54:17;100200.25;;;17.50;100.00
71361;BME280;59166;48.908;1.870;2022-10-16T22:59:18;100198.00;;;17.52;100.00
71361;BME280;59166;48.908;1.870;2022-10-16T23:04:20;100199.13;;;17.51;100.00
71361;BME280;59166;48.908;1.870;2022-10-16T23:09:21;100197.09;;;17.56;100.00
71361;BME280;59166;48.908;1.870;2022-10-16T23:14:22;100192.13;;;17.58;100.00
71361;BME280;59166;48.908;1.870;2022-10-16T23:19:24;100194.03;;;17.58;100.00
71361;BME280;59166;48.908;1.870;2022-10-16T23:24:25;100198.88;;;17.61;100.00
71361;BME280;59166;48.908;1.870;2022-10-16T23:29:26;100192.00;;;17.63;100.00
71361;BME280;59166;48.908;1.870;2022-10-16T23:34:29;100197.03;;;17.70;100.00
71361;BME280;59166;48.908;1.870;2022-10-16T23:39:29;100199.16;;;17.73;100.00
71361;BME280;59166;48.908;1.870;2022-10-16T23:44:30;100213.00;;;17.76;100.00
71361;BME280;59166;48.908;1.870;2022-10-16T23:49:32;100212.19;;;17.76;100.00
71361;BME280;59166;48.908;1.870;2022-10-16T23:54:33;100212.31;;;17.71;100.00
71361;BME280;59166;48.908;1.870;2022-10-16T23:59:34;100215.66;;;17.68;100.00
